Chino, California
Current Conditions -  °F | °C
As of 4:53 AM on Thursday 30 Oct 2014 (Local Time) from KCNO Reporting Station
Haze Haze  
Wind Chill: 53°   Ceiling: Unl
Heat Index: 53°   Visibility: 6mi
Dew Point: 49°   Wind: 3mph
Humidity: 86%   Direction: 10°N
Pressure: 30"   Gusts: NA
Location:  34.01°N, 117.68°W
Report Text: KCNO 301153Z AUTO 01003KT 6SM BR CLR 12/09 A3000 RMK AO2 SLP154 T01170094 10161 20117 55006
Loading
Personal Weather Stations






























Interactive Weather Map
Tropical Storm Tracking
New forecast layout! Learn more

10-Day Weather Forecast

Advertisements
Track Severe Weather on mobile